createdAt,value
2019-03-22T00:01:14.613Z,32.77
2019-03-22T00:03:44.256Z,32.00
2019-03-22T00:06:13.951Z,31.97
2019-03-22T00:08:43.655Z,32.27
2019-03-22T00:11:13.256Z,32.30
2019-03-22T00:13:43.002Z,31.33
2019-03-22T00:16:12.578Z,31.37
2019-03-22T00:18:42.230Z,29.03
2019-03-22T00:21:11.836Z,29.47
2019-03-22T00:23:41.472Z,30.27
2019-03-22T00:26:11.221Z,29.17
2019-03-22T00:28:40.927Z,29.63
2019-03-22T00:31:10.604Z,29.73
2019-03-22T00:33:40.408Z,28.87
2019-03-22T00:36:10.098Z,29.67
2019-03-22T00:38:39.777Z,27.97
2019-03-22T00:41:09.423Z,29.90
2019-03-22T00:43:39.092Z,27.53
2019-03-22T00:46:08.624Z,28.30
2019-03-22T00:48:38.306Z,27.77
2019-03-22T00:51:07.843Z,28.20
2019-03-22T00:53:37.385Z,27.63
2019-03-22T00:56:06.996Z,26.93
2019-03-22T00:58:36.572Z,26.90
2019-03-22T01:01:06.268Z,30.17
2019-03-22T01:03:35.936Z,28.60
2019-03-22T01:06:05.701Z,26.93
2019-03-22T01:08:35.383Z,26.90
2019-03-22T01:11:05.256Z,28.93
2019-03-22T01:13:34.941Z,27.27
2019-03-22T01:16:04.802Z,27.73
2019-03-22T01:18:34.417Z,30.00
2019-03-22T01:21:04.169Z,27.60
2019-03-22T01:23:33.754Z,27.50
2019-03-22T01:26:03.415Z,28.13
2019-03-22T01:28:33.052Z,28.10
2019-03-22T01:31:02.728Z,27.63
2019-03-22T01:33:32.329Z,28.20
2019-03-22T01:36:01.916Z,28.83
2019-03-22T01:38:31.472Z,27.83
2019-03-22T01:41:01.073Z,27.37
2019-03-22T01:43:30.716Z,27.57
2019-03-22T01:46:00.330Z,28.63
2019-03-22T01:48:29.966Z,28.30
2019-03-22T01:50:59.544Z,27.80
2019-03-22T01:53:29.147Z,28.43
2019-03-22T01:55:58.787Z,28.17
2019-03-22T01:58:28.590Z,28.23
2019-03-22T02:00:58.237Z,27.93
2019-03-22T02:03:28.194Z,26.60
2019-03-22T02:05:58.100Z,28.50
2019-03-22T02:08:28.040Z,30.87
2019-03-22T02:10:58.063Z,30.70
2019-03-22T02:13:28.253Z,30.80
2019-03-22T02:15:58.031Z,37.60
2019-03-22T02:18:28.060Z,35.50
2019-03-22T02:20:57.961Z,34.37
2019-03-22T02:23:27.912Z,35.20
2019-03-22T02:25:57.755Z,33.33
2019-03-22T02:28:29.209Z,36.73
2019-03-22T02:31:00.007Z,37.47
2019-03-22T02:33:37.540Z,37.47
2019-03-22T02:36:07.280Z,35.10
2019-03-22T02:38:37.014Z,35.47
2019-03-22T02:41:06.659Z,33.30
2019-03-22T02:43:36.245Z,32.83
2019-03-22T02:46:05.881Z,37.13
2019-03-22T02:48:36.339Z,38.00
2019-03-22T02:51:06.023Z,40.07
2019-03-22T02:53:35.656Z,41.87
2019-03-22T02:56:05.754Z,41.80
2019-03-22T02:58:35.459Z,43.43
2019-03-22T03:01:05.364Z,41.27
2019-03-22T03:03:34.949Z,38.97
2019-03-22T03:06:04.783Z,43.80
2019-03-22T03:08:34.362Z,41.87
2019-03-22T03:11:04.029Z,42.87
2019-03-22T03:13:33.720Z,43.80
2019-03-22T03:16:03.503Z,43.70
2019-03-22T03:18:33.036Z,41.47
2019-03-22T03:21:02.754Z,41.00
2019-03-22T03:23:32.330Z,39.57
2019-03-22T03:28:55.917Z,40.10
2019-03-22T03:31:25.646Z,37.20
2019-03-22T03:33:55.308Z,37.00
2019-03-22T03:36:25.084Z,37.10
2019-03-22T03:38:54.711Z,40.33
2019-03-22T03:41:25.557Z,39.63
2019-03-22T03:43:55.287Z,38.90
2019-03-22T03:46:25.476Z,38.50
2019-03-22T03:48:55.123Z,36.63
2019-03-22T03:51:24.909Z,36.23
2019-03-22T03:53:54.526Z,34.57
2019-03-22T03:56:24.057Z,34.23
2019-03-22T03:58:58.893Z,33.07
2019-03-22T04:01:28.630Z,34.83
2019-03-22T04:03:58.421Z,34.03
2019-03-22T04:06:28.083Z,34.43
2019-03-22T04:09:09.086Z,35.03
2019-03-22T04:11:38.702Z,34.73
2019-03-22T04:14:08.238Z,34.60
2019-03-22T04:16:37.821Z,34.93
2019-03-22T04:19:07.475Z,34.77
2019-03-22T04:21:37.224Z,34.80
2019-03-22T04:24:06.955Z,34.37
2019-03-22T04:26:36.501Z,34.37
2019-03-22T04:29:08.150Z,34.50
2019-03-22T04:31:37.477Z,34.17
2019-03-22T04:34:08.151Z,34.57
2019-03-22T04:36:37.880Z,34.73
2019-03-22T04:39:08.571Z,34.43
2019-03-22T04:41:38.149Z,34.67
2019-03-22T04:44:07.752Z,35.70
2019-03-22T04:46:39.413Z,33.77
2019-03-22T04:49:09.871Z,34.90
2019-03-22T04:51:40.185Z,35.77
2019-03-22T04:54:11.786Z,37.50
2019-03-22T04:56:42.383Z,38.33
2019-03-22T04:59:19.286Z,36.40
2019-03-22T05:01:49.849Z,36.67
2019-03-22T05:04:20.790Z,36.67
2019-03-22T05:06:52.150Z,34.83
2019-03-22T05:09:23.544Z,36.97
2019-03-22T05:11:54.283Z,36.77
2019-03-22T05:14:24.369Z,36.17
2019-03-22T05:16:55.256Z,36.67
2019-03-22T05:19:26.797Z,35.80
2019-03-22T05:21:57.800Z,34.27
2019-03-22T05:24:28.708Z,34.83
2019-03-22T05:27:00.553Z,33.77
2019-03-22T05:29:32.982Z,34.23
2019-03-22T05:32:07.570Z,34.03
2019-03-22T05:34:37.317Z,35.00
2019-03-22T05:37:07.013Z,34.90
2019-03-22T05:39:36.747Z,33.97
2019-03-22T05:42:06.331Z,35.83
2019-03-22T05:44:36.157Z,34.53
2019-03-22T05:47:05.967Z,36.33
2019-03-22T05:49:35.585Z,33.13
2019-03-22T05:52:05.661Z,34.50
2019-03-22T05:54:36.595Z,33.33
2019-03-22T05:57:13.392Z,34.10
2019-03-22T05:59:42.435Z,34.13
2019-03-22T06:02:09.075Z,33.50
2019-03-22T06:04:40.817Z,33.93
2019-03-22T06:07:10.346Z,30.87
2019-03-22T06:09:40.013Z,31.73
2019-03-22T06:12:09.597Z,30.13
2019-03-22T06:14:39.261Z,31.07
2019-03-22T06:17:10.234Z,32.40
2019-03-22T06:19:41.705Z,31.33
2019-03-22T06:22:11.470Z,30.97
2019-03-22T06:24:41.234Z,33.23
2019-03-22T06:27:10.934Z,34.43
2019-03-22T06:29:40.767Z,33.70
2019-03-22T06:32:10.811Z,33.77
2019-03-22T06:34:40.834Z,32.50
2019-03-22T06:37:10.644Z,32.57
2019-03-22T06:39:40.193Z,32.97
2019-03-22T06:42:09.796Z,33.83
2019-03-22T06:44:39.621Z,31.53
2019-03-22T06:47:11.065Z,32.83
2019-03-22T06:49:41.705Z,31.87
2019-03-22T06:52:14.152Z,33.33
2019-03-22T06:54:43.893Z,33.73
2019-03-22T06:57:13.600Z,32.53
2019-03-22T06:59:44.666Z,31.83
2019-03-22T07:02:14.469Z,31.80
2019-03-22T07:04:44.181Z,30.60
2019-03-22T07:07:13.753Z,30.80
2019-03-22T07:09:43.365Z,30.80
2019-03-22T07:12:13.032Z,31.30
2019-03-22T07:14:42.676Z,30.93
2019-03-22T07:17:12.601Z,29.87
2019-03-22T07:19:45.871Z,28.30
2019-03-22T07:22:16.035Z,27.43
2019-03-22T07:24:45.869Z,27.00
2019-03-22T07:27:15.446Z,26.27
2019-03-22T07:29:45.074Z,28.00
2019-03-22T07:32:17.236Z,27.03
2019-03-22T07:34:46.984Z,26.73
2019-03-22T07:37:16.781Z,26.63
2019-03-22T07:39:46.404Z,26.83
2019-03-22T07:42:17.604Z,26.70
2019-03-22T07:44:47.389Z,26.43
2019-03-22T07:47:56.332Z,26.23
2019-03-22T07:50:25.855Z,27.80
2019-03-22T07:52:55.468Z,26.80
2019-03-22T07:55:25.163Z,27.60
2019-03-22T07:57:54.713Z,25.47
2019-03-22T08:00:30.646Z,27.50
2019-03-22T08:02:55.774Z,27.33
2019-03-22T08:05:25.316Z,27.57
2019-03-22T08:07:56.136Z,28.37
2019-03-22T08:10:26.144Z,25.53
2019-03-22T08:12:56.570Z,27.70
2019-03-22T08:15:31.633Z,27.53
2019-03-22T08:18:01.921Z,27.53
2019-03-22T08:20:31.821Z,27.43
2019-03-22T08:23:01.841Z,29.13
2019-03-22T08:25:34.572Z,27.97
2019-03-22T08:28:04.506Z,27.60
2019-03-22T08:30:42.919Z,27.40
2019-03-22T08:33:05.833Z,27.37
2019-03-22T08:35:35.464Z,27.87
2019-03-22T08:38:05.568Z,27.50
2019-03-22T08:40:35.152Z,27.63
2019-03-22T08:43:04.970Z,25.30
2019-03-22T08:45:34.678Z,26.83
2019-03-22T08:48:04.692Z,26.67
2019-03-22T08:50:34.579Z,27.93
2019-03-22T08:53:04.294Z,27.77
2019-03-22T08:55:34.102Z,27.23
2019-03-22T08:58:04.062Z,28.47
2019-03-22T09:00:39.036Z,28.23
2019-03-22T09:03:05.359Z,27.03
2019-03-22T09:05:34.924Z,26.83
2019-03-22T09:08:04.972Z,26.13
2019-03-22T09:10:35.187Z,25.37
2019-03-22T09:13:05.324Z,23.77
2019-03-22T09:15:41.008Z,24.80
2019-03-22T09:18:10.148Z,25.87
2019-03-22T09:20:40.099Z,25.77
2019-03-22T09:23:09.779Z,27.40
2019-03-22T09:25:39.559Z,26.33
2019-03-22T09:28:10.523Z,27.23
2019-03-22T09:30:40.406Z,26.27
2019-03-22T09:33:13.243Z,27.77
2019-03-22T09:35:43.229Z,29.73
2019-03-22T09:38:13.524Z,32.20
2019-03-22T09:40:43.309Z,30.00
2019-03-22T09:43:13.101Z,30.50
2019-03-22T09:46:11.466Z,30.23
2019-03-22T09:48:42.967Z,31.07
2019-03-22T09:51:13.124Z,28.87
2019-03-22T09:53:42.821Z,31.30
2019-03-22T09:56:12.553Z,28.40
2019-03-22T09:58:42.489Z,31.20
2019-03-22T10:01:23.053Z,28.93
2019-03-22T10:03:43.675Z,29.40
2019-03-22T10:06:13.379Z,30.63
2019-03-22T10:08:45.063Z,29.03
2019-03-22T10:11:14.514Z,27.37
2019-03-22T10:13:44.299Z,26.77
2019-03-22T10:16:14.099Z,28.70
2019-03-22T10:18:43.726Z,30.83
2019-03-22T10:21:22.310Z,30.90
2019-03-22T10:23:44.797Z,31.60
2019-03-22T10:26:14.568Z,31.03
2019-03-22T10:28:44.262Z,33.33
2019-03-22T10:31:15.571Z,34.43
2019-03-22T10:33:45.213Z,33.33
2019-03-22T10:36:15.314Z,35.47
2019-03-22T10:38:45.028Z,36.10
2019-03-22T10:41:17.295Z,35.73
2019-03-22T10:43:47.020Z,33.00
2019-03-22T10:46:16.804Z,35.27
2019-03-22T10:48:47.900Z,31.90
2019-03-22T10:51:21.330Z,32.50
2019-03-22T10:53:49.212Z,32.30
2019-03-22T10:56:18.910Z,30.47
2019-03-22T10:58:48.753Z,31.70
2019-03-22T11:01:18.504Z,30.30
2019-03-22T11:03:48.321Z,30.30
2019-03-22T11:06:31.016Z,29.73
2019-03-22T11:09:42.697Z,31.23
2019-03-22T11:12:26.647Z,31.03
2019-03-22T11:14:56.507Z,28.80
2019-03-22T11:17:26.184Z,28.00
2019-03-22T11:19:57.462Z,26.57
2019-03-22T11:22:27.121Z,28.10
2019-03-22T11:24:56.828Z,30.33
2019-03-22T11:27:26.562Z,30.30
2019-03-22T11:29:56.277Z,30.57
2019-03-22T11:32:26.057Z,28.47
2019-03-22T11:34:55.735Z,30.30
2019-03-22T11:37:25.512Z,30.00
2019-03-22T11:39:55.301Z,29.53
2019-03-22T11:42:24.965Z,31.50
2019-03-22T11:44:54.590Z,32.47
2019-03-22T11:47:24.127Z,33.20
2019-03-22T11:49:53.808Z,32.77
2019-03-22T11:52:23.606Z,34.77
2019-03-22T11:54:53.682Z,33.87
2019-03-22T11:57:23.497Z,33.37
2019-03-22T11:59:53.313Z,35.00
2019-03-22T12:02:23.735Z,33.10
2019-03-22T12:04:53.495Z,33.03
2019-03-22T12:07:23.306Z,33.43
2019-03-22T12:09:52.925Z,29.40
2019-03-22T12:12:22.620Z,29.07
2019-03-22T12:14:52.676Z,29.87
2019-03-22T12:17:22.378Z,29.07
2019-03-22T12:19:52.278Z,29.93
2019-03-22T12:22:21.960Z,29.37
2019-03-22T12:24:51.622Z,31.67
2019-03-22T12:27:21.307Z,29.37
2019-03-22T12:29:50.967Z,29.00
2019-03-22T12:32:20.679Z,29.37
2019-03-22T12:34:50.327Z,29.97
2019-03-22T12:37:20.294Z,29.80
2019-03-22T12:39:50.152Z,29.43
2019-03-22T12:42:20.053Z,28.97
2019-03-22T12:44:49.749Z,27.33
2019-03-22T12:47:19.420Z,29.90
2019-03-22T12:49:49.095Z,30.20
2019-03-22T12:52:21.394Z,30.43
2019-03-22T12:54:51.058Z,29.67
2019-03-22T12:57:20.673Z,29.00
2019-03-22T12:59:50.294Z,31.83
2019-03-22T13:02:20.028Z,31.27
2019-03-22T13:04:49.857Z,31.50
2019-03-22T13:07:19.509Z,30.07
2019-03-22T13:09:49.096Z,31.53
2019-03-22T13:12:18.811Z,30.73
2019-03-22T13:14:48.599Z,30.47
2019-03-22T13:17:19.163Z,30.27
2019-03-22T13:19:48.892Z,30.03
2019-03-22T13:22:18.573Z,31.37
2019-03-22T13:24:49.397Z,32.23
2019-03-22T13:27:19.038Z,29.07
2019-03-22T13:29:48.805Z,28.90
2019-03-22T13:32:21.371Z,28.17
2019-03-22T13:34:51.056Z,27.17
2019-03-22T13:37:20.872Z,27.00
2019-03-22T13:39:50.670Z,26.73
2019-03-22T13:42:22.813Z,25.50
2019-03-22T13:44:52.662Z,24.03
2019-03-22T13:47:22.470Z,25.10
2019-03-22T13:49:52.132Z,23.70
2019-03-22T13:52:21.727Z,24.77
2019-03-22T13:54:51.281Z,24.50
2019-03-22T13:57:21.186Z,24.87
2019-03-22T13:59:50.950Z,22.80
2019-03-22T14:02:22.944Z,24.67
2019-03-22T14:04:52.562Z,26.07
2019-03-22T14:07:26.498Z,25.07
2019-03-22T14:09:57.752Z,23.30
2019-03-22T14:12:36.632Z,24.30
2019-03-22T14:14:58.656Z,22.73
2019-03-22T14:17:28.665Z,23.07
2019-03-22T14:19:58.324Z,22.57
2019-03-22T14:22:29.082Z,23.67
2019-03-22T14:24:58.849Z,22.87
2019-03-22T14:27:28.557Z,23.07
2019-03-22T14:29:58.500Z,21.53
2019-03-22T14:32:29.268Z,22.90
2019-03-22T14:34:59.036Z,22.30
2019-03-22T14:37:28.727Z,21.83
2019-03-22T14:39:58.641Z,22.67
2019-03-22T14:42:28.370Z,21.63
2019-03-22T14:44:58.145Z,22.57
2019-03-22T14:47:27.806Z,20.63
2019-03-22T14:49:57.559Z,20.50
2019-03-22T14:52:27.671Z,20.13
2019-03-22T14:54:57.371Z,20.20
2019-03-22T14:57:27.204Z,20.50
2019-03-22T14:59:59.151Z,20.70
2019-03-22T15:02:28.532Z,21.47
2019-03-22T15:04:58.548Z,20.97
2019-03-22T15:07:29.534Z,20.23
2019-03-22T15:09:59.321Z,20.87
2019-03-22T15:12:28.884Z,20.87
2019-03-22T15:15:04.882Z,19.57
2019-03-22T15:18:08.765Z,19.77
2019-03-22T15:20:57.607Z,18.53
2019-03-22T15:24:03.644Z,18.70
2019-03-22T15:26:50.922Z,19.83
2019-03-22T15:29:38.558Z,20.03
2019-03-22T15:32:26.021Z,19.70
2019-03-22T15:35:18.289Z,19.90
2019-03-22T15:38:06.674Z,21.17
2019-03-22T15:40:36.249Z,20.97
2019-03-22T15:43:06.239Z,20.17
2019-03-22T15:45:36.138Z,20.93
2019-03-22T15:48:05.918Z,19.93
2019-03-22T15:50:35.732Z,21.67
2019-03-22T15:53:05.619Z,20.23
2019-03-22T15:55:35.600Z,20.03
2019-03-22T15:58:05.986Z,20.43
2019-03-22T16:00:35.846Z,21.07
2019-03-22T16:03:15.405Z,19.60
2019-03-22T16:05:45.060Z,21.47
2019-03-22T16:08:14.917Z,20.13
2019-03-22T16:10:44.597Z,20.10
2019-03-22T16:13:14.354Z,21.23
2019-03-22T16:15:44.057Z,21.53
2019-03-22T16:18:13.801Z,21.40
2019-03-22T16:20:43.487Z,21.73
2019-03-22T16:23:13.146Z,20.90
2019-03-22T16:25:43.025Z,19.93
2019-03-22T16:28:12.638Z,20.43
2019-03-22T16:30:42.407Z,19.77
2019-03-22T16:33:12.279Z,19.90
2019-03-22T16:35:42.073Z,20.53
2019-03-22T16:38:11.977Z,20.13
2019-03-22T16:40:41.783Z,22.90
2019-03-22T16:43:11.704Z,25.70
2019-03-22T16:45:45.542Z,20.97
2019-03-22T16:48:15.283Z,20.17
2019-03-22T16:50:44.860Z,19.93
2019-03-22T16:53:14.539Z,21.07
2019-03-22T16:55:44.341Z,21.13
2019-03-22T16:58:14.134Z,20.77
2019-03-22T17:00:43.969Z,20.03
2019-03-22T17:03:13.740Z,20.73
2019-03-22T17:05:43.862Z,20.20
2019-03-22T17:08:15.691Z,21.90
2019-03-22T17:10:45.395Z,22.60
2019-03-22T17:13:15.275Z,22.27
2019-03-22T17:15:44.944Z,21.60
2019-03-22T17:18:14.747Z,21.53
2019-03-22T17:20:46.237Z,21.67
2019-03-22T17:23:15.957Z,21.50
2019-03-22T17:25:45.650Z,22.27
2019-03-22T17:28:23.533Z,22.97
2019-03-22T17:30:53.431Z,23.23
2019-03-22T17:33:23.037Z,25.30
2019-03-22T17:35:52.780Z,23.40
2019-03-22T17:38:22.584Z,23.90
2019-03-22T17:40:52.457Z,24.90
2019-03-22T17:43:22.024Z,24.77
2019-03-22T17:45:51.881Z,24.40
2019-03-22T17:48:21.562Z,25.70
2019-03-22T17:50:51.626Z,26.57
2019-03-22T17:53:21.598Z,25.60
2019-03-22T17:55:52.752Z,26.17
2019-03-22T17:58:22.372Z,26.93
2019-03-22T18:00:52.350Z,26.13
2019-03-22T18:03:22.401Z,26.93
2019-03-22T18:05:52.068Z,26.47
2019-03-22T18:08:21.829Z,28.27
2019-03-22T18:10:51.825Z,28.40
2019-03-22T18:13:21.433Z,29.80
2019-03-22T18:15:52.796Z,29.13
2019-03-22T18:18:22.707Z,29.63
2019-03-22T18:20:52.508Z,28.33
2019-03-22T18:23:23.645Z,29.67
2019-03-22T18:25:53.518Z,29.93
2019-03-22T18:28:23.425Z,28.73
2019-03-22T18:30:53.268Z,29.93
2019-03-22T18:33:22.920Z,29.67
2019-03-22T18:35:52.585Z,31.20
2019-03-22T18:38:22.446Z,29.13
2019-03-22T18:40:54.494Z,31.03
2019-03-22T18:43:24.396Z,31.17
2019-03-22T18:45:54.340Z,30.90
2019-03-22T18:48:24.040Z,29.87
2019-03-22T18:50:57.085Z,29.93
2019-03-22T18:53:25.119Z,30.53
2019-03-22T18:55:54.815Z,32.70
2019-03-22T18:58:24.539Z,31.30
2019-03-22T19:00:54.261Z,31.60
2019-03-22T19:03:24.149Z,33.30
2019-03-22T19:05:54.113Z,32.63
2019-03-22T19:08:23.962Z,34.07
2019-03-22T19:10:54.662Z,34.27
2019-03-22T19:13:30.709Z,33.67
2019-03-22T19:15:55.592Z,33.87
2019-03-22T19:18:25.306Z,36.20
2019-03-22T19:20:55.964Z,36.53
2019-03-22T19:23:25.676Z,36.97
2019-03-22T19:25:55.330Z,36.80
2019-03-22T19:28:25.235Z,37.10
2019-03-22T19:30:55.248Z,37.77
2019-03-22T19:33:24.987Z,37.33
2019-03-22T19:35:54.906Z,36.20
2019-03-22T19:38:24.456Z,38.83
2019-03-22T19:40:54.212Z,38.23
2019-03-22T19:43:26.573Z,43.80
2019-03-22T19:45:55.873Z,38.17
2019-03-22T19:48:25.509Z,39.23
2019-03-22T19:50:55.340Z,40.53
2019-03-22T19:53:25.220Z,39.43
2019-03-22T19:55:54.790Z,40.53
2019-03-22T19:58:24.517Z,37.73
2019-03-22T20:00:54.229Z,38.80
2019-03-22T20:03:23.834Z,39.17
2019-03-22T20:05:53.430Z,39.33
2019-03-22T20:08:23.081Z,39.43
2019-03-22T20:10:52.767Z,39.53
2019-03-22T20:13:22.360Z,40.47
2019-03-22T20:15:51.904Z,39.30
2019-03-22T20:18:21.661Z,38.60
2019-03-22T20:20:51.317Z,40.03
2019-03-22T20:23:21.056Z,43.00
2019-03-22T20:25:50.666Z,40.23
2019-03-22T20:28:20.271Z,41.20
2019-03-22T20:30:50.046Z,41.70
2019-03-22T20:33:19.662Z,39.20
2019-03-22T20:35:49.430Z,40.20
2019-03-22T20:38:19.126Z,40.17
2019-03-22T20:40:49.912Z,39.80
2019-03-22T20:43:21.188Z,40.77
2019-03-22T20:45:50.917Z,39.03
2019-03-22T20:48:20.539Z,42.10
2019-03-22T20:50:50.515Z,41.33
2019-03-22T20:53:20.301Z,39.80
2019-03-22T20:55:49.957Z,41.80
2019-03-22T20:58:19.656Z,40.70
2019-03-22T21:00:51.725Z,41.97
2019-03-22T21:03:21.378Z,39.77
2019-03-22T21:05:50.905Z,41.50
2019-03-22T21:08:20.622Z,40.77
2019-03-22T21:10:50.459Z,41.87
2019-03-22T21:13:20.064Z,41.53
2019-03-22T21:15:49.786Z,39.87
2019-03-22T21:18:19.389Z,41.20
2019-03-22T21:20:49.008Z,41.83
2019-03-22T21:23:18.779Z,41.43
2019-03-22T21:25:48.438Z,41.67
2019-03-22T21:28:18.029Z,40.70
2019-03-22T21:30:47.679Z,42.13
2019-03-22T21:33:17.227Z,42.77
2019-03-22T21:35:50.033Z,41.63
2019-03-22T21:38:19.654Z,41.80
2019-03-22T21:40:49.237Z,41.17
2019-03-22T21:43:18.937Z,42.27
2019-03-22T21:45:48.600Z,42.37
2019-03-22T21:48:18.232Z,43.20
2019-03-22T21:50:47.771Z,44.10
2019-03-22T21:53:17.356Z,45.70
2019-03-22T21:55:46.952Z,46.13
2019-03-22T21:58:16.521Z,45.30
2019-03-22T22:00:46.142Z,44.33
2019-03-22T22:03:15.797Z,44.30
2019-03-22T22:05:48.054Z,46.23
2019-03-22T22:08:16.646Z,45.20
2019-03-22T22:10:46.349Z,44.40
2019-03-22T22:13:15.991Z,46.60
2019-03-22T22:15:46.090Z,46.27
2019-03-22T22:18:15.630Z,45.33
2019-03-22T22:20:45.307Z,45.27
2019-03-22T22:23:14.971Z,44.90
2019-03-22T22:25:44.653Z,47.80
2019-03-22T22:28:14.176Z,45.60
2019-03-22T22:30:43.829Z,45.83
2019-03-22T22:33:13.353Z,44.77
2019-03-22T22:35:42.955Z,45.17
2019-03-22T22:38:12.592Z,46.90
2019-03-22T22:40:42.295Z,46.20
2019-03-22T22:43:11.978Z,46.77
2019-03-22T22:45:41.620Z,44.23
2019-03-22T22:48:11.301Z,46.10
2019-03-22T22:50:40.957Z,46.67
2019-03-22T22:53:10.608Z,47.60
2019-03-22T22:55:40.305Z,44.53
2019-03-22T22:58:10.102Z,48.50
2019-03-22T23:00:40.355Z,46.03
2019-03-22T23:03:10.125Z,46.00
2019-03-22T23:05:39.796Z,48.60
2019-03-22T23:08:09.453Z,47.73
2019-03-22T23:10:39.049Z,48.07
2019-03-22T23:13:08.867Z,47.43
2019-03-22T23:15:38.492Z,48.40
2019-03-22T23:18:07.996Z,48.67
2019-03-22T23:20:37.638Z,44.63
2019-03-22T23:23:07.231Z,45.53
2019-03-22T23:25:36.856Z,47.17
2019-03-22T23:28:06.585Z,47.57
2019-03-22T23:30:36.169Z,44.87
2019-03-22T23:33:05.900Z,47.07
2019-03-22T23:35:35.553Z,46.30
2019-03-22T23:38:05.225Z,49.57
2019-03-22T23:40:34.914Z,46.10
2019-03-22T23:43:04.704Z,46.87
2019-03-22T23:45:34.291Z,47.67
2019-03-22T23:48:03.959Z,48.50
2019-03-22T23:50:33.770Z,46.47
2019-03-22T23:53:05.914Z,47.60
2019-03-22T23:55:35.558Z,48.53
2019-03-22T23:58:05.229Z,45.03
